Main page
METAR-TAF:

METAR-TAF

Airports :

Base Aérea de Alcantarilla

Murcia, Spain

latitude: 37-57N, longitude: 001-14W, elevation: 75 m

Current weather observation

The report was made 1 hour and 3 minutes ago, at 08:00 UTC
Wind 1 kt from variable directions
Temperature 27°C
Humidity 74%
Pressure 1018 hPa
Visibility 10 km or more
Few clouds at a height of 2000 ft

METAR: LERI 150800Z VRB01KT 9999 FEW020 27/22 Q1018 NOSIG

Time: 11:03 (09:03 UTC)

Forecast

The report was made 1 hour and 3 minutes ago, at 08:00 UTC
Forecast valid from 15 at 09 UTC to 15 at 18 UTC
Wind 8 kt from the East
Visibility 10 km or more
Few clouds at a height of 2000 ft
Probability 40% :
Temporary
from 15 at 15 UTC to 15 at 18 UTC
Few clouds at a height of 3000 ft, Cumulonimbus.
Broken clouds at a height of 4000 ft

TAF: LERI 150800Z 1509/1518 10008KT 9999 FEW020 PROB40 TEMPO 1515/1518 FEW030CB BKN040

Weather observations and forecasts of more than 4000 airports (METAR and TAF reports).

The available stations are represented by yellow and red dots on the map.

Hover mouse over dot to see the name of the station.

Then click to see weather observations and forecasts.

To change the map : click on the green buttons with a black cross to zoom in, on the green button with a dash to zoom out, or on the green arrows for adjacent maps.


METAR-TAF: